Time;durP1;ratioP1;P1;durP2;ratioP2;P2;SDS_P1;SDS_P2;PMS_P1;PMS_P2;Temp;Humidity;BMP_temperature;BMP_pressure;BME280_temperature;BME280_humidity;BME280_pressure;Samples;Min_cycle;Max_cycle;Signal;HPM_P1;HPM_P2
2022/11/17 00:00:44;;;;;;;8.77;2.92;;;;;;;9.40;98.83;98932.13;5009517;28;20045;-72
2022/11/17 00:03:14;;;;;;;6.07;2.63;;;;;;;9.41;98.76;98918.03;5006475;28;20054;-71
2022/11/17 00:05:43;;;;;;;6.43;2.70;;;;;;;9.40;99.09;98918.97;5009872;28;20455;-72
2022/11/17 00:08:10;;;;;;;6.97;2.67;;;;;;;9.41;98.86;98902.25;5007071;28;20050;-69
2022/11/17 00:10:37;;;;;;;7.40;2.72;;;;;;;9.41;99.11;98900.47;5009464;28;20046;-69
2022/11/17 00:15:53;;;;;;;6.68;2.65;;;;;;;9.42;99.56;98875.00;5005328;28;20094;-69
2022/11/17 00:21:17;;;;;;;8.82;2.90;;;;;;;9.43;99.53;98859.16;5011210;28;20118;-69
2022/11/17 00:23:48;;;;;;;6.90;2.50;;;;;;;9.42;99.74;98852.19;5009886;28;20066;-71
2022/11/17 00:26:31;;;;;;;6.85;2.35;;;;;;;9.41;100.00;98841.75;5012498;28;20049;-72
2022/11/17 00:29:04;;;;;;;7.97;2.00;;;;;;;9.43;99.94;98814.44;5010625;28;20051;-71
2022/11/17 00:34:21;;;;;;;4.65;2.25;;;;;;;9.46;100.00;98806.34;5010884;28;20053;-71
2022/11/17 00:36:54;;;;;;;8.77;2.42;;;;;;;9.46;100.00;98802.88;5011944;28;20141;-71
2022/11/17 00:39:23;;;;;;;7.13;2.13;;;;;;;9.47;100.00;98789.63;5010019;28;20535;-72
2022/11/17 00:41:50;;;;;;;7.80;2.28;;;;;;;9.47;100.00;98787.00;5011502;28;20050;-71
2022/11/17 00:44:17;;;;;;;6.70;2.38;;;;;;;9.48;100.00;98777.34;5010764;28;20496;-69
2022/11/17 00:46:44;;;;;;;5.63;2.00;;;;;;;9.51;100.00;98771.91;5011548;28;21014;-70
2022/11/17 00:49:11;;;;;;;4.55;1.70;;;;;;;9.54;100.00;98760.34;5009410;28;20532;-69
2022/11/17 00:51:39;;;;;;;4.15;1.70;;;;;;;9.55;100.00;98768.16;5011852;28;20043;-69
2022/11/17 00:54:11;;;;;;;7.70;2.30;;;;;;;9.55;100.00;98760.25;5009575;28;20152;-68
2022/11/17 00:56:39;;;;;;;5.15;1.60;;;;;;;9.58;99.99;98759.22;5011751;28;20521;-68
2022/11/17 00:59:06;;;;;;;8.48;1.80;;;;;;;9.56;99.97;98756.69;5010879;28;20420;-69
2022/11/17 01:01:33;;;;;;;7.03;2.05;;;;;;;9.55;100.00;98756.78;5012065;28;20046;-71
2022/11/17 01:04:02;;;;;;;6.05;1.90;;;;;;;9.57;100.00;98760.16;5011106;28;20042;-69
2022/11/17 01:06:38;;;;;;;9.18;2.30;;;;;;;9.56;100.00;98751.44;5011457;28;20325;-69
2022/11/17 01:09:11;;;;;;;7.15;1.58;;;;;;;9.57;100.00;98734.72;5012107;28;20464;-69
2022/11/17 01:11:39;;;;;;;6.72;1.48;;;;;;;9.57;100.00;98736.47;5011349;28;20051;-69
2022/11/17 01:14:06;;;;;;;5.03;1.52;;;;;;;9.60;100.00;98731.91;5010810;28;20059;-70
2022/11/17 01:16:33;;;;;;;3.10;1.35;;;;;;;9.62;100.00;98705.50;5009864;28;20038;-70
2022/11/17 01:19:02;;;;;;;3.33;1.40;;;;;;;9.59;100.00;98706.53;5007814;28;20697;-70
2022/11/17 01:21:30;;;;;;;7.38;2.20;;;;;;;9.58;100.00;98707.47;5007960;28;20050;-70
2022/11/17 01:24:00;;;;;;;5.65;1.55;;;;;;;9.58;100.00;98710.09;5011278;28;20045;-70
2022/11/17 01:26:32;;;;;;;4.38;1.60;;;;;;;9.61;100.00;98693.28;5009485;28;20046;-69
2022/11/17 01:29:03;;;;;;;4.28;1.40;;;;;;;9.62;100.00;98697.59;5009901;28;20042;-69
2022/11/17 01:31:34;;;;;;;6.10;1.38;;;;;;;9.62;100.00;98697.59;5011684;28;20045;-69
2022/11/17 01:34:01;;;;;;;4.25;1.42;;;;;;;9.61;100.00;98682.75;5010263;28;20123;-69
2022/11/17 01:39:19;;;;;;;4.75;1.40;;;;;;;9.59;100.00;98701.28;4993486;28;20503;-69
2022/11/17 01:41:46;;;;;;;5.55;1.50;;;;;;;9.62;100.00;98692.34;5011057;28;20046;-71
2022/11/17 01:44:43;;;;;;;5.25;1.33;;;;;;;9.62;100.00;98687.06;5010283;28;20043;-69
2022/11/17 01:47:36;;;;;;;4.53;1.27;;;;;;;9.64;100.00;98674.69;5010272;28;20038;-68
2022/11/17 01:50:19;;;;;;;5.18;1.48;;;;;;;9.60;100.00;98676.66;4995564;28;20125;-70
2022/11/17 01:52:49;;;;;;;4.55;1.60;;;;;;;9.60;100.00;98681.91;5010373;28;20475;-71
2022/11/17 01:55:20;;;;;;;5.25;1.50;;;;;;;9.59;100.00;98687.25;5011805;28;20050;-72
2022/11/17 01:58:00;;;;;;;3.85;1.30;;;;;;;9.61;100.00;98674.88;5010314;28;20038;-72
2022/11/17 02:00:28;;;;;;;5.15;1.70;;;;;;;9.64;100.00;98658.91;5009150;28;20053;-72
2022/11/17 02:02:56;;;;;;;3.30;1.30;;;;;;;9.65;100.00;98647.44;5011234;28;20034;-73
2022/11/17 02:05:36;;;;;;;4.55;1.20;;;;;;;9.66;100.00;98643.88;5008856;28;20057;-73
2022/11/17 02:08:06;;;;;;;2.50;1.20;;;;;;;9.69;100.00;98641.03;5010280;28;20042;-73
2022/11/17 02:10:35;;;;;;;4.13;1.30;;;;;;;9.67;100.00;98619.22;5010327;28;20045;-72
2022/11/17 02:13:03;;;;;;;2.42;1.40;;;;;;;9.69;100.00;98624.41;5010769;28;20055;-74
2022/11/17 02:15:30;;;;;;;4.05;0.98;;;;;;;9.68;100.00;98631.44;5009908;28;20054;-73
2022/11/17 02:17:59;;;;;;;5.93;1.00;;;;;;;9.69;100.00;98627.03;5006540;28;20050;-72
2022/11/17 02:21:13;;;;;;;4.55;1.88;;;;;;;9.71;100.00;98626.00;5009264;28;20441;-73
2022/11/17 02:24:40;;;;;;;3.38;1.05;;;;;;;9.72;100.00;98621.56;4927615;28;20073;-71
2022/11/17 02:27:43;;;;;;;5.80;1.02;;;;;;;9.75;100.00;98613.50;5010074;28;20039;-71
2022/11/17 02:30:16;;;;;;;2.53;0.90;;;;;;;9.73;99.98;98618.00;5008897;28;20042;-71
2022/11/17 02:33:10;;;;;;;2.67;1.23;;;;;;;9.77;100.00;98614.25;5010487;28;20089;-72
2022/11/17 02:36:06;;;;;;;2.25;0.80;;;;;;;9.77;100.00;98616.88;5007583;28;20082;-72
2022/11/17 02:38:58;;;;;;;5.82;1.20;;;;;;;9.81;99.79;98604.38;5008285;28;20054;-72
2022/11/17 02:41:40;;;;;;;2.45;0.93;;;;;;;9.80;99.63;98590.38;5004359;28;20050;-72
2022/11/17 02:44:23;;;;;;;3.20;1.10;;;;;;;9.78;99.30;98594.91;5009507;28;20034;-72
2022/11/17 02:47:13;;;;;;;6.35;1.30;;;;;;;9.72;99.10;98588.22;5003656;28;20074;-71
2022/11/17 02:49:49;;;;;;;4.25;1.30;;;;;;;9.67;98.54;98590.28;5007841;28;20046;-72
2022/11/17 02:52:18;;;;;;;4.07;0.93;;;;;;;9.64;98.50;98593.13;5007363;28;20500;-72
2022/11/17 02:54:45;;;;;;;5.28;1.10;;;;;;;9.61;98.71;98590.69;5009894;28;20049;-71
2022/11/17 02:57:34;;;;;;;2.85;0.90;;;;;;;9.62;98.76;98587.13;5007778;28;20786;-72
2022/11/17 03:00:16;;;;;;;3.05;1.00;;;;;;;9.64;98.70;98590.50;5009061;28;20497;-72
2022/11/17 03:03:17;;;;;;;3.80;1.17;;;;;;;9.64;98.78;98579.97;5001925;28;20046;-72
2022/11/17 03:06:08;;;;;;;3.38;1.38;;;;;;;9.60;98.51;98584.59;5003340;28;20045;-72
2022/11/17 03:09:11;;;;;;;3.47;1.10;;;;;;;9.58;98.46;98580.34;5009555;28;20035;-74
2022/11/17 03:11:58;;;;;;;2.65;0.98;;;;;;;9.58;98.63;98589.09;5004820;28;20049;-74
2022/11/17 03:14:41;;;;;;;4.68;1.10;;;;;;;9.59;98.73;98577.63;5002995;28;20066;-72
2022/11/17 03:17:40;;;;;;;3.22;1.00;;;;;;;9.65;98.70;98586.94;5009559;28;20039;-72
2022/11/17 03:20:26;;;;;;;2.83;1.15;;;;;;;9.69;98.39;98584.94;5008258;28;20042;-72
2022/11/17 03:23:23;;;;;;;4.07;1.00;;;;;;;9.73;98.26;98574.13;5010389;28;20046;-72
2022/11/17 03:25:56;;;;;;;3.22;0.70;;;;;;;9.74;98.53;98565.31;5008746;28;20051;-72
2022/11/17 03:28:29;;;;;;;2.30;0.90;;;;;;;9.77;98.43;98556.34;5008636;28;20054;-71
2022/11/17 03:31:01;;;;;;;2.45;1.00;;;;;;;9.79;98.56;98536.06;5009754;28;20030;-73
2022/11/17 03:33:30;;;;;;;2.63;0.90;;;;;;;9.81;98.46;98509.63;5009691;28;20854;-73
2022/11/17 03:36:11;;;;;;;3.08;1.00;;;;;;;9.78;98.68;98511.53;5008714;28;20042;-72
2022/11/17 03:38:55;;;;;;;2.90;1.05;;;;;;;9.77;98.83;98514.25;5008221;28;20042;-71
2022/11/17 03:41:24;;;;;;;3.55;0.95;;;;;;;9.77;99.13;98519.53;5009222;28;20050;-71
2022/11/17 03:43:56;;;;;;;2.20;1.00;;;;;;;9.76;99.30;98515.19;5006947;28;20043;-71
2022/11/17 03:46:28;;;;;;;1.08;0.60;;;;;;;9.76;99.44;98508.16;5006638;28;20467;-70
2022/11/17 03:49:29;;;;;;;3.35;0.90;;;;;;;9.76;99.53;98499.41;5008157;28;20074;-70
2022/11/17 03:51:56;;;;;;;4.32;1.00;;;;;;;9.76;99.76;98507.31;5004522;28;20057;-70
2022/11/17 03:54:24;;;;;;;1.42;1.00;;;;;;;9.77;99.46;98506.38;5012102;28;20754;-71
2022/11/17 03:57:12;;;;;;;3.60;1.00;;;;;;;9.79;99.67;98502.69;5012657;28;20503;-71
2022/11/17 03:59:54;;;;;;;2.25;1.13;;;;;;;9.82;99.52;98504.28;5009600;28;20038;-71
2022/11/17 04:02:24;;;;;;;1.92;1.20;;;;;;;9.84;99.50;98523.44;5012235;28;20047;-70
2022/11/17 04:05:04;;;;;;;2.55;1.48;;;;;;;9.79;99.80;98534.25;5006132;28;20050;-69
2022/11/17 04:07:46;;;;;;;3.22;1.60;;;;;;;9.76;100.00;98523.09;5011603;28;20447;-69
2022/11/17 04:10:18;;;;;;;2.75;1.58;;;;;;;9.77;100.00;98523.00;5011829;28;20092;-68
2022/11/17 04:18:22;;;;;;;2.88;1.30;;;;;;;9.76;100.00;98517.84;5010761;28;20113;-70
2022/11/17 04:20:53;;;;;;;2.55;1.40;;;;;;;9.77;100.00;98507.19;5010391;28;20049;-70
2022/11/17 04:23:22;;;;;;;2.97;1.55;;;;;;;9.81;100.00;98509.63;5006818;28;20035;-71
2022/11/17 04:28:46;;;;;;;4.28;1.90;;;;;;;9.82;100.00;98492.91;5010547;28;20897;-71
2022/11/17 04:31:14;;;;;;;;;;;;;;;9.81;100.00;98493.84;5013754;28;20047;-71
2022/11/17 04:33:52;;;;;;;1.92;1.38;;;;;;;9.79;100.00;98481.63;5011718;28;19976;-71
2022/11/17 04:36:24;;;;;;;4.28;1.42;;;;;;;9.78;100.00;98472.06;5013149;28;20038;-71
2022/11/17 04:38:55;;;;;;;6.72;1.50;;;;;;;9.82;100.00;98469.22;5010463;28;20046;-71
2022/11/17 04:44:16;;;;;;;2.38;1.02;;;;;;;9.85;99.48;98461.16;5011753;28;20034;-71
2022/11/17 04:46:47;;;;;;;1.90;1.27;;;;;;;9.84;99.65;98447.13;5011040;28;20078;-71
2022/11/17 04:49:16;;;;;;;2.25;0.80;;;;;;;9.88;99.27;98437.25;5008546;28;20042;-72
2022/11/17 04:51:44;;;;;;;3.13;0.90;;;;;;;9.91;99.07;98439.69;5012374;28;20043;-71
2022/11/17 04:54:16;;;;;;;2.63;0.95;;;;;;;9.93;98.63;98432.53;5011018;28;20069;-72
2022/11/17 04:56:44;;;;;;;3.25;1.10;;;;;;;9.95;98.86;98428.84;5011696;28;20495;-72
2022/11/17 04:59:12;;;;;;;2.90;1.00;;;;;;;10.00;98.40;98432.97;5009030;28;20105;-72
2022/11/17 05:01:40;;;;;;;3.45;0.80;;;;;;;10.01;98.46;98440.75;5009702;28;20077;-73
2022/11/17 05:04:13;;;;;;;2.40;0.80;;;;;;;10.02;98.23;98439.00;5008741;28;20050;-73
2022/11/17 05:06:43;;;;;;;2.10;0.90;;;;;;;10.02;98.61;98446.88;5009919;28;20050;-73
2022/11/17 05:09:15;;;;;;;2.55;0.75;;;;;;;10.02;98.27;98439.81;5007376;28;20050;-75
2022/11/17 05:14:29;;;;;;;1.58;0.68;;;;;;;10.02;98.31;98433.72;5010082;28;20062;-73
2022/11/17 05:17:08;;;;;;;2.45;0.73;;;;;;;10.02;98.24;98431.91;5009854;28;20078;-73
2022/11/17 05:19:44;;;;;;;1.98;0.70;;;;;;;10.00;98.41;98428.53;5000391;28;20039;-73
2022/11/17 05:25:07;;;;;;;3.58;0.80;;;;;;;9.99;98.43;98434.75;5011427;28;20045;-71
2022/11/17 05:27:35;;;;;;;5.47;0.80;;;;;;;9.98;98.83;98442.75;5003887;28;20046;-72
2022/11/17 05:30:05;;;;;;;3.17;0.70;;;;;;;9.94;99.01;98424.53;5008665;28;20043;-72
2022/11/17 05:32:33;;;;;;;2.45;0.65;;;;;;;9.94;99.43;98428.97;5011628;28;20057;-72
2022/11/17 05:35:00;;;;;;;3.83;0.60;;;;;;;9.94;99.47;98436.84;5026818;28;20057;-71
2022/11/17 05:37:27;;;;;;;4.20;0.93;;;;;;;9.91;99.85;98432.66;5026299;28;20042;-71
2022/11/17 05:39:54;;;;;;;6.45;0.90;;;;;;;9.91;100.00;98424.75;5026292;28;20037;-71
2022/11/17 05:42:21;;;;;;;2.58;0.70;;;;;;;9.89;100.00;98428.41;5029425;28;20097;-71
2022/11/17 05:44:48;;;;;;;4.50;1.30;;;;;;;9.89;100.00;98433.66;5029984;28;20038;-72
2022/11/17 05:47:15;;;;;;;3.75;1.00;;;;;;;9.91;100.00;98424.75;5026480;28;20554;-70
2022/11/17 05:49:43;;;;;;;3.30;1.02;;;;;;;9.88;100.00;98417.03;5037673;28;20178;-69
2022/11/17 05:52:10;;;;;;;3.70;0.93;;;;;;;9.85;100.00;98419.03;5031512;28;20144;-72
2022/11/17 05:54:37;;;;;;;5.10;1.00;;;;;;;9.85;100.00;98427.75;5029300;28;20494;-70
2022/11/17 05:57:19;;;;;;;4.82;1.30;;;;;;;9.85;100.00;98427.75;5026084;28;20053;-70
2022/11/17 05:59:55;;;;;;;2.95;0.90;;;;;;;9.93;100.00;98430.72;5023279;28;20101;-70
2022/11/17 06:02:48;;;;;;;2.35;0.80;;;;;;;9.95;100.00;98449.91;5010933;28;20042;-69
2022/11/17 06:05:22;;;;;;;3.92;1.02;;;;;;;10.02;100.00;98454.78;5027848;28;20045;-70
2022/11/17 06:07:50;;;;;;;4.68;0.85;;;;;;;10.05;100.00;98454.56;5027877;28;20065;-70
2022/11/17 06:10:17;;;;;;;3.50;1.02;;;;;;;10.09;100.00;98463.94;5030224;28;20088;-70
2022/11/17 06:12:45;;;;;;;4.55;1.08;;;;;;;10.16;100.00;98459.97;5032284;28;20048;-69
2022/11/17 06:15:12;;;;;;;2.47;0.80;;;;;;;10.21;100.00;98462.28;5028422;28;20054;-69
2022/11/17 06:17:58;;;;;;;4.95;1.20;;;;;;;10.29;100.00;98456.50;5031918;28;20057;-69
2022/11/17 06:20:42;;;;;;;4.78;0.70;;;;;;;10.30;99.80;98453.75;5031643;28;20048;-70
2022/11/17 06:23:11;;;;;;;3.30;1.00;;;;;;;10.38;99.91;98461.19;5025601;28;20049;-70
2022/11/17 06:25:38;;;;;;;5.13;1.00;;;;;;;10.45;99.67;98456.34;5028981;28;21059;-70
2022/11/17 06:28:12;;;;;;;4.35;1.08;;;;;;;10.51;99.54;98464.69;5031505;28;20046;-70
2022/11/17 06:30:41;;;;;;;5.45;0.90;;;;;;;10.59;99.05;98465.94;5032877;28;20447;-70
2022/11/17 06:33:13;;;;;;;7.05;0.95;;;;;;;10.53;98.63;98469.84;5013964;28;20049;-71
2022/11/17 06:35:44;;;;;;;4.07;1.05;;;;;;;10.41;98.44;98456.56;5030041;28;20092;-71
2022/11/17 06:38:11;;;;;;;7.28;1.10;;;;;;;10.38;98.48;98466.44;5025863;28;20108;-71
2022/11/17 06:40:38;;;;;;;6.95;1.00;;;;;;;10.32;98.62;98469.47;5015967;28;20072;-70
2022/11/17 06:47:55;;;;;;;5.00;1.00;;;;;;;10.20;99.24;98469.34;5032763;28;20113;-70
2022/11/17 06:50:22;;;;;;;8.43;1.58;;;;;;;10.17;99.20;98472.19;5024276;28;20069;-71
2022/11/17 06:52:49;;;;;;;4.10;1.10;;;;;;;10.17;99.42;98468.72;5027088;28;20789;-70
2022/11/17 06:55:17;;;;;;;6.47;1.40;;;;;;;10.16;99.50;98475.75;5027925;28;20538;-71
2022/11/17 06:57:45;;;;;;;5.00;1.13;;;;;;;10.16;99.54;98473.13;5024091;28;20566;-71
2022/11/17 07:00:19;;;;;;;9.85;3.55;;;;;;;10.16;99.56;98477.56;5026872;28;20046;-71
2022/11/17 07:02:46;;;;;;;11.57;4.38;;;;;;;10.17;99.68;98495.03;5027367;28;20047;-71
2022/11/17 07:05:13;;;;;;;6.00;1.77;;;;;;;10.16;99.69;98491.53;5030230;28;20463;-70
2022/11/17 07:07:40;;;;;;;7.18;2.70;;;;;;;10.19;99.50;98494.00;5029264;28;20057;-70
2022/11/17 07:10:08;;;;;;;4.88;1.30;;;;;;;10.21;99.31;98507.91;5027094;28;20489;-68
2022/11/17 07:12:35;;;;;;;5.10;1.20;;;;;;;10.21;99.43;98502.63;5026452;28;20049;-69
2022/11/17 07:15:03;;;;;;;6.15;1.55;;;;;;;10.23;99.25;98510.44;5018455;28;20133;-69
2022/11/17 07:17:31;;;;;;;6.07;1.65;;;;;;;10.23;99.21;98508.63;5004867;28;20053;-69
2022/11/17 07:19:58;;;;;;;9.27;2.10;;;;;;;10.24;99.40;98518.22;5011144;28;20043;-69
2022/11/17 07:22:26;;;;;;;9.70;2.40;;;;;;;10.28;99.56;98523.28;5005764;28;20049;-69
2022/11/17 07:24:53;;;;;;;8.50;1.52;;;;;;;10.29;99.54;98520.53;5007351;28;20088;-69
2022/11/17 07:27:20;;;;;;;6.47;1.65;;;;;;;10.31;99.65;98538.91;5009503;28;20054;-68
2022/11/17 07:29:48;;;;;;;5.80;1.50;;;;;;;10.31;99.62;98531.00;5009144;28;20042;-68
2022/11/17 07:32:16;;;;;;;10.90;2.63;;;;;;;10.31;99.60;98521.28;5008205;28;20594;-68
2022/11/17 07:34:43;;;;;;;10.25;1.80;;;;;;;10.32;99.79;98527.41;5008365;28;20580;-69
2022/11/17 07:37:10;;;;;;;9.02;2.22;;;;;;;10.32;99.63;98528.25;5008806;28;20042;-69
2022/11/17 07:39:37;;;;;;;9.98;1.88;;;;;;;10.33;99.61;98532.56;5011227;28;20069;-69
2022/11/17 07:42:05;;;;;;;5.93;1.83;;;;;;;10.34;99.68;98536.03;5012441;28;20602;-69
2022/11/17 07:44:33;;;;;;;5.50;1.20;;;;;;;10.35;99.25;98537.72;5011723;28;20228;-69
2022/11/17 07:47:00;;;;;;;4.78;1.48;;;;;;;10.35;98.92;98550.91;5009259;28;20781;-70
2022/11/17 07:49:28;;;;;;;6.03;1.23;;;;;;;10.36;98.87;98558.72;5013832;28;20053;-70
2022/11/17 07:51:56;;;;;;;3.50;1.00;;;;;;;10.39;98.17;98557.69;5010244;28;20598;-70
2022/11/17 07:54:23;;;;;;;7.40;1.45;;;;;;;10.41;98.15;98563.72;5010931;28;20149;-70
2022/11/17 07:56:50;;;;;;;6.00;1.13;;;;;;;10.45;98.01;98559.91;5009244;28;20058;-69
2022/11/17 07:59:17;;;;;;;7.00;1.25;;;;;;;10.49;98.13;98560.53;5007981;28;20706;-70
2022/11/17 08:01:47;;;;;;;7.15;0.90;;;;;;;10.53;97.49;98568.16;5008905;28;20053;-70
2022/11/17 08:04:14;;;;;;;3.35;0.85;;;;;;;10.60;97.36;98559.84;5011481;28;20042;-69
2022/11/17 08:06:41;;;;;;;5.15;1.10;;;;;;;10.63;97.03;98567.56;5003560;28;20129;-68
2022/11/17 08:09:09;;;;;;;4.30;0.80;;;;;;;10.65;96.29;98578.81;5024786;28;20057;-69
2022/11/17 08:11:36;;;;;;;5.95;0.77;;;;;;;10.63;96.22;98575.47;5010106;28;20049;-68
2022/11/17 08:14:04;;;;;;;5.22;0.98;;;;;;;10.61;96.02;98575.53;5010405;28;20043;-69
2022/11/17 08:16:31;;;;;;;3.58;0.73;;;;;;;10.57;95.92;98585.44;5027641;28;20064;-69
2022/11/17 08:19:05;;;;;;;4.63;0.70;;;;;;;10.55;95.69;98589.97;5029863;28;20078;-69
2022/11/17 08:21:34;;;;;;;2.47;0.60;;;;;;;10.49;95.99;98584.25;5026853;28;20730;-68
2022/11/17 08:24:02;;;;;;;3.20;0.60;;;;;;;10.46;96.11;98587.13;5027349;28;20490;-68
2022/11/17 08:26:29;;;;;;;3.80;0.68;;;;;;;10.43;95.94;98590.78;5028959;28;20851;-68
2022/11/17 08:28:57;;;;;;;4.25;0.60;;;;;;;10.41;95.68;98593.50;5028775;28;20524;-68
2022/11/17 08:31:25;;;;;;;2.90;0.63;;;;;;;10.43;95.60;98592.56;5028637;28;20117;-68
2022/11/17 08:33:52;;;;;;;4.53;0.60;;;;;;;10.45;95.28;98596.78;5030319;28;20042;-69
2022/11/17 08:36:19;;;;;;;2.20;0.50;;;;;;;10.49;95.16;98602.69;5029017;28;20105;-68
2022/11/17 08:38:47;;;;;;;4.32;0.70;;;;;;;10.53;94.87;98602.38;5031334;28;20038;-69
2022/11/17 08:41:14;;;;;;;3.10;0.50;;;;;;;10.58;94.52;98604.75;5028110;28;20053;-68
2022/11/17 08:43:42;;;;;;;2.92;0.70;;;;;;;10.60;94.52;98605.47;5030195;28;20048;-67
2022/11/17 08:46:13;;;;;;;3.33;0.70;;;;;;;10.59;94.10;98611.69;5027987;28;20049;-68
2022/11/17 08:48:40;;;;;;;3.33;0.52;;;;;;;10.53;94.00;98607.66;5023206;28;20538;-68
2022/11/17 08:51:08;;;;;;;3.85;0.57;;;;;;;10.52;94.48;98615.69;5031226;28;20777;-68
2022/11/17 08:53:35;;;;;;;2.83;0.63;;;;;;;10.49;94.44;98610.59;5027727;28;20057;-68
2022/11/17 08:56:08;;;;;;;2.58;0.63;;;;;;;10.46;94.60;98621.34;5032923;28;20092;-68
2022/11/17 08:58:43;;;;;;;2.83;0.90;;;;;;;10.44;94.16;98610.91;5033200;28;20050;-68
2022/11/17 09:01:17;;;;;;;3.42;0.60;;;;;;;10.41;94.42;98621.66;5026853;28;21121;-68
2022/11/17 09:03:46;;;;;;;3.75;0.73;;;;;;;10.44;94.43;98623.25;5030258;28;20046;-68
2022/11/17 09:06:15;;;;;;;2.55;0.98;;;;;;;10.48;94.17;98622.09;5033138;28;20097;-68
2022/11/17 09:08:42;;;;;;;5.57;1.90;;;;;;;10.51;94.36;98624.53;5028487;28;20057;-68
2022/11/17 09:11:13;;;;;;;5.82;0.90;;;;;;;10.53;93.93;98627.91;5032247;28;20053;-68
2022/11/17 09:13:41;;;;;;;3.33;1.33;;;;;;;10.54;93.99;98634.88;5030294;28;20065;-68
2022/11/17 09:16:10;;;;;;;4.50;0.80;;;;;;;10.57;93.47;98632.03;5032276;28;20050;-68
2022/11/17 09:18:39;;;;;;;2.33;0.70;;;;;;;10.55;93.60;98641.84;5028759;28;20042;-68
2022/11/17 09:21:12;;;;;;;4.10;0.90;;;;;;;10.55;93.59;98640.03;5028611;28;20042;-68
2022/11/17 09:23:40;;;;;;;5.07;0.80;;;;;;;10.54;93.60;98642.78;5031492;28;20038;-68
2022/11/17 09:26:12;;;;;;;3.13;0.57;;;;;;;10.51;93.55;98650.88;5032591;28;20076;-68
2022/11/17 09:28:44;;;;;;;1.58;0.73;;;;;;;10.47;93.70;98647.59;5026256;28;20759;-68
2022/11/17 09:31:15;;;;;;;3.50;0.90;;;;;;;10.44;93.41;98646.94;5022721;28;20056;-68
2022/11/17 09:33:43;;;;;;;4.10;0.57;;;;;;;10.38;93.59;98662.19;5026494;28;20074;-68
2022/11/17 09:36:13;;;;;;;2.88;0.93;;;;;;;10.35;93.87;98662.38;5028110;28;20049;-68
2022/11/17 09:38:41;;;;;;;2.60;1.10;;;;;;;10.37;94.24;98665.78;5031184;28;20504;-68
2022/11/17 09:41:27;;;;;;;4.13;1.00;;;;;;;10.37;94.01;98665.78;5023186;28;21081;-69
2022/11/17 09:44:14;;;;;;;2.08;0.70;;;;;;;10.41;94.11;98676.97;5028056;28;20053;-68
2022/11/17 09:46:57;;;;;;;2.30;0.95;;;;;;;10.40;94.24;98683.19;5027455;28;20462;-68
2022/11/17 09:49:48;;;;;;;1.70;0.80;;;;;;;10.42;93.66;98683.94;5024743;28;20034;-68
2022/11/17 09:52:48;;;;;;;4.88;1.27;;;;;;;10.43;93.66;98682.13;5029586;28;20227;-69
2022/11/17 09:55:25;;;;;;;2.20;0.93;;;;;;;10.44;93.95;98694.38;5031226;28;20042;-70
2022/11/17 09:58:27;;;;;;;4.35;1.38;;;;;;;10.48;93.71;98693.22;5026910;28;20483;-69
2022/11/17 10:00:55;;;;;;;4.15;0.60;;;;;;;10.55;94.05;98692.72;4987444;28;20054;-69
2022/11/17 10:03:33;;;;;;;4.30;0.73;;;;;;;10.64;93.84;98699.19;5029237;28;20096;-70
2022/11/17 10:06:26;;;;;;;4.97;1.23;;;;;;;10.75;93.30;98689.75;5029657;28;20045;-70
2022/11/17 10:09:44;;;;;;;4.47;1.30;;;;;;;10.85;92.61;98696.09;5020709;28;20097;-71
2022/11/17 10:12:19;;;;;;;2.95;0.90;;;;;;;10.97;92.26;98697.06;5031266;28;20153;-70
2022/11/17 10:14:50;;;;;;;3.75;1.00;;;;;;;11.09;91.87;98700.72;5029147;28;20144;-71
2022/11/17 10:17:17;;;;;;;2.15;0.60;;;;;;;11.25;91.80;98700.50;5022504;28;20121;-70
2022/11/17 10:19:44;;;;;;;4.10;0.70;;;;;;;11.43;91.60;98694.00;5031262;28;20049;-70
2022/11/17 10:22:35;;;;;;;4.70;0.85;;;;;;;11.60;90.96;98703.38;5025813;28;20499;-71
2022/11/17 10:25:03;;;;;;;3.40;0.77;;;;;;;11.74;90.21;98697.19;5028898;28;20046;-71
2022/11/17 10:27:33;;;;;;;2.83;0.60;;;;;;;11.82;89.26;98696.63;5025203;28;20803;-70
2022/11/17 10:30:18;;;;;;;5.13;0.60;;;;;;;11.93;88.64;98709.94;5030473;28;20046;-71
2022/11/17 10:32:57;;;;;;;1.40;0.40;;;;;;;12.00;87.37;98706.91;5021903;28;20043;-70
2022/11/17 10:35:32;;;;;;;4.28;0.57;;;;;;;12.05;87.06;98710.06;5031464;28;20148;-70
2022/11/17 10:38:12;;;;;;;3.03;0.70;;;;;;;12.13;86.06;98699.78;5031264;28;20048;-70
2022/11/17 10:40:38;;;;;;;6.55;0.90;;;;;;;12.21;84.33;98705.34;5029284;28;20043;-70
2022/11/17 10:43:11;;;;;;;4.35;0.75;;;;;;;12.29;84.50;98702.19;5030640;28;20053;-70
2022/11/17 10:45:48;;;;;;;7.57;2.65;;;;;;;12.37;84.28;98707.75;5026581;28;20038;-70
2022/11/17 10:48:36;;;;;;;3.60;0.45;;;;;;;12.44;84.39;98705.53;5028617;28;20045;-70
2022/11/17 10:51:09;;;;;;;2.33;0.52;;;;;;;12.50;83.72;98707.72;5020781;28;20049;-70
2022/11/17 10:53:43;;;;;;;2.97;0.60;;;;;;;12.55;83.08;98712.69;5022608;28;20500;-70
2022/11/17 10:56:20;;;;;;;1.40;0.45;;;;;;;12.57;83.08;98710.75;5030950;28;20592;-71
2022/11/17 10:58:59;;;;;;;3.60;1.05;;;;;;;12.60;82.96;98715.00;5023377;28;20064;-71
2022/11/17 11:01:29;;;;;;;4.43;0.60;;;;;;;12.61;81.79;98714.88;5031177;28;20042;-71
2022/11/17 11:03:56;;;;;;;1.67;0.40;;;;;;;12.61;81.80;98725.44;5031246;28;20038;-71
2022/11/17 11:06:28;;;;;;;3.38;0.47;;;;;;;12.60;82.12;98718.47;5030585;28;20042;-71
2022/11/17 11:08:59;;;;;;;2.95;0.35;;;;;;;12.57;81.93;98722.19;5030472;28;20048;-71
2022/11/17 11:11:38;;;;;;;2.08;0.40;;;;;;;12.57;80.66;98729.25;5030327;28;20042;-71
2022/11/17 11:14:38;;;;;;;1.05;0.40;;;;;;;12.54;80.37;98729.50;5029251;28;20046;-70
2022/11/17 11:17:11;;;;;;;3.38;0.65;;;;;;;12.49;79.88;98721.91;5024905;28;20500;-70
2022/11/17 11:19:41;;;;;;;1.02;0.50;;;;;;;12.46;80.40;98729.22;5028124;28;20144;-71
2022/11/17 11:22:36;;;;;;;4.38;0.50;;;;;;;12.49;80.40;98735.13;5035539;28;20045;-72
2022/11/17 11:25:36;;;;;;;2.38;0.60;;;;;;;12.52;79.60;98737.50;5024769;28;20498;-72
2022/11/17 11:28:41;;;;;;;4.82;0.63;;;;;;;12.52;80.10;98742.81;5029274;28;20049;-72
2022/11/17 11:31:31;;;;;;;2.22;0.50;;;;;;;12.53;81.02;98746.31;5028658;28;20053;-71
2022/11/17 11:34:38;;;;;;;3.08;0.50;;;;;;;12.54;80.20;98746.19;5034510;28;20490;-71
2022/11/17 11:37:15;;;;;;;4.32;0.50;;;;;;;12.49;81.02;98750.97;5023087;28;20100;-72
2022/11/17 11:40:29;;;;;;;1.92;0.43;;;;;;;12.43;80.97;98754.03;5027110;28;20052;-72
2022/11/17 11:43:02;;;;;;;3.10;0.50;;;;;;;12.39;80.67;98753.41;4932188;28;20095;-72
2022/11/17 11:46:02;;;;;;;2.20;0.70;;;;;;;12.35;80.50;98762.53;5017753;28;20092;-71
2022/11/17 11:48:38;;;;;;;4.15;0.60;;;;;;;12.28;80.33;98766.53;5025371;28;20046;-72
2022/11/17 11:51:26;;;;;;;3.60;0.60;;;;;;;12.26;79.28;98752.59;5030586;28;20049;-71
2022/11/17 11:54:02;;;;;;;1.60;0.40;;;;;;;12.30;79.98;98774.38;5017493;28;20042;-71
2022/11/17 11:56:36;;;;;;;1.98;0.40;;;;;;;12.32;79.20;98765.38;5025531;28;20042;-72
2022/11/17 11:59:36;;;;;;;5.07;0.50;;;;;;;12.35;80.20;98770.44;5029937;28;20038;-71
2022/11/17 12:02:09;;;;;;;3.33;0.80;;;;;;;12.35;79.20;98762.53;5029596;28;20042;-71
2022/11/17 12:05:21;;;;;;;3.80;0.77;;;;;;;12.35;78.50;98770.44;5030643;28;20065;-71
2022/11/17 12:08:40;;;;;;;2.35;0.50;;;;;;;12.31;79.09;98770.78;5024428;28;20072;-71
2022/11/17 12:14:04;;;;;;;3.28;1.83;;;;;;;12.36;80.27;98787.13;4947775;28;20055;-70
2022/11/17 12:16:35;;;;;;;4.25;2.50;;;;;;;12.38;79.18;98788.72;5010890;28;20058;-71
2022/11/17 12:19:58;;;;;;;5.38;3.85;;;;;;;12.40;77.46;98785.97;5033358;28;20089;-71
2022/11/17 12:22:28;;;;;;;5.10;1.55;;;;;;;12.39;77.83;98786.94;5025975;28;20489;-71
2022/11/17 12:25:02;;;;;;;3.00;1.20;;;;;;;12.39;77.82;98793.03;5034199;28;20042;-72
2022/11/17 12:27:33;;;;;;;2.67;1.52;;;;;;;12.36;78.91;98792.41;5033413;28;20046;-71
2022/11/17 12:30:33;;;;;;;3.72;1.42;;;;;;;12.37;78.65;98799.41;5039637;28;20037;-71
2022/11/17 12:33:03;;;;;;;67.70;41.13;;;;;;;12.35;78.74;98803.94;5024227;28;20100;-71
2022/11/17 12:35:35;;;;;;;3.58;1.58;;;;;;;12.32;78.10;98801.50;5023980;28;20124;-72
2022/11/17 12:38:18;;;;;;;4.43;1.00;;;;;;;12.27;78.21;98810.63;5026508;28;20038;-71
2022/11/17 12:40:51;;;;;;;3.95;3.50;;;;;;;12.22;78.74;98814.53;5022339;28;20081;-72
2022/11/17 12:43:23;;;;;;;3.60;1.50;;;;;;;12.20;78.14;98803.22;5024821;28;20042;-71
2022/11/17 12:46:02;;;;;;;4.45;0.70;;;;;;;12.20;77.81;98804.06;5036962;28;20052;-71